Accueil
METAR-TAF:

METAR-TAF

Aéroports :

Base aérienne de Lechfeld

Lechfeld, Allemagne

latitude: 48-11N, longitude: 010-52E, altitude: 555 m

Observation

Le bulletin a été fait il y a 10 minutes, à 21:12 UTC
Vent 3 kt de est
Température -3°C
Humidité 100%
Pression 1008 hPa
Visibilité: 8000 m
Quelques nuages à une hauteur de 25000 ft
Brouillard mince

METAR: ETSL 202112Z 08003KT 8000 MIFG FEW250 M03/M03 Q1008 BLU+

Heure: 22:22 (21:22 UTC)

Prévision

Le bulletin a été fait il y a 2 heures et 0 minutes, à 19:22 UTC
Prévision valable du 20 à 19 UTC au 20 à 24 UTC
Vent 5 kt de est/sud-est
Visibilité: 2000 m
Ciel clair
Brouillard mince
Temporairement
du 20 à 19 UTC au 20 à 24 UTC
Vent 3 kt de direction variable
Visibilité: 1930 m
à une hauteur de 100 ft
brouillard givrant

TAF: ETSL 201922Z 2019/2024 12005KT 2000 MIFG SKC TEMPO 2019/2024 VRB03KT 0500 FZFG VV001 CANCEL 1930 BY ETGL

Observations et prévisions météorologiques de plus de 4000 aéroports (messages METAR et TAF).

Les stations disponibles sont représentées par des disques jaunes et rouges sur la carte.

Passer la souris dessus pour voir le nom de la station.

Cliquer dessus pour voir les observations et prévisions météorologiques.

Pour changer de carte: cliquez sur les boutons verts avec une croix noire pour zoomer, sur le bouton vert avec un tiret pour effectuer un zoom arrière, ou sur les flèches vertes pour les cartes adjacentes.


METAR-TAF: